Time;durP1;ratioP1;P1;durP2;ratioP2;P2;SDS_P1;SDS_P2;PMS_P1;PMS_P2;Temp;Humidity;BMP_temperature;BMP_pressure;BME280_temperature;BME280_humidity;BME280_pressure;Samples;Min_cycle;Max_cycle;Signal;HPM_P1;HPM_P2
2022/02/01 00:37:51;;;;;;;23.65;8.48;;;;;;;;;;10573318;28;20020;-74
2022/02/01 00:42:51;;;;;;;17.50;8.18;;;;;;;;;;10572345;28;20106;-71
2022/02/01 00:47:51;;;;;;;20.70;8.70;;;;;;;;;;10553364;28;20031;-71
2022/02/01 00:52:52;;;;;;;19.77;8.88;;;;;;;;;;10553881;28;20269;-71
2022/02/01 00:57:52;;;;;;;16.13;8.55;;;;;;;;;;10553790;28;20023;-71
2022/02/01 01:02:52;;;;;;;30.27;9.60;;;;;;;;;;10531595;28;20027;-72
2022/02/01 01:07:53;;;;;;;33.95;11.15;;;;;;;;;;10528813;28;20468;-71
2022/02/01 01:13:05;;;;;;;22.02;8.23;;;;;;;;;;10511469;28;20036;-78
2022/02/01 01:44:12;;;;;;;14.75;5.15;;;;;;;;;;10571165;28;20015;-72
2022/02/01 01:54:31;;;;;;;13.48;5.85;;;;;;;;;;10564215;28;20420;-71
2022/02/01 01:59:32;;;;;;;11.60;4.65;;;;;;;;;;10521955;28;20024;-70
2022/02/01 02:04:32;;;;;;;13.48;5.85;;;;;;;;;;10518500;28;20461;-71
2022/02/01 02:09:33;;;;;;;14.55;5.50;;;;;;;;;;10534913;28;20031;-70
2022/02/01 02:14:33;;;;;;;14.02;5.45;;;;;;;;;;10536154;28;20036;-74
2022/02/01 02:19:33;;;;;;;11.70;5.83;;;;;;;;;;10537667;28;20123;-73
2022/02/01 02:24:38;;;;;;;11.98;6.22;;;;;;;;;;10559638;28;20111;-69
2022/02/01 02:29:38;;;;;;;13.40;7.53;;;;;;;;;;10558284;28;20508;-75
2022/02/01 02:34:39;;;;;;;21.07;8.90;;;;;;;;;;10578293;28;20024;-70
2022/02/01 02:39:51;;;;;;;20.60;11.67;;;;;;;;;;10577543;28;20466;-71
2022/02/01 02:45:05;;;;;;;28.42;10.48;;;;;;;;;;10574480;28;20166;-75
2022/02/01 02:50:05;;;;;;;21.38;10.40;;;;;;;;;;10516773;28;20047;-73
2022/02/01 02:55:06;;;;;;;19.80;9.57;;;;;;;;;;10529137;28;20058;-73
2022/02/01 03:00:06;;;;;;;18.23;8.43;;;;;;;;;;10557947;28;20028;-74
2022/02/01 03:05:07;;;;;;;20.48;9.35;;;;;;;;;;10559107;28;20124;-73
2022/02/01 03:10:07;;;;;;;26.05;9.48;;;;;;;;;;10558359;28;20031;-71
2022/02/01 03:15:35;;;;;;;25.65;10.02;;;;;;;;;;10558271;28;20039;-72
2022/02/01 03:20:28;;;;;;;31.58;9.73;;;;;;;;;;10574969;28;20131;-72
2022/02/01 03:25:28;;;;;;;25.23;9.32;;;;;;;;;;10556173;28;20076;-71
2022/02/01 03:30:29;;;;;;;20.27;9.10;;;;;;;;;;10556435;28;20039;-74
2022/02/01 03:35:29;;;;;;;23.30;10.27;;;;;;;;;;10557210;28;20072;-75
2022/02/01 03:40:29;;;;;;;29.92;11.73;;;;;;;;;;10557261;28;20032;-72
2022/02/01 03:45:30;;;;;;;31.07;12.93;;;;;;;;;;10574640;28;20372;-71
2022/02/01 03:50:30;;;;;;;26.70;11.37;;;;;;;;;;10549530;28;20275;-75
2022/02/01 03:55:30;;;;;;;32.55;12.43;;;;;;;;;;10533903;28;20040;-75
2022/02/01 04:00:31;;;;;;;27.95;11.40;;;;;;;;;;10535321;28;20028;-71
2022/02/01 04:05:31;;;;;;;24.98;9.55;;;;;;;;;;10532197;28;20035;-71
2022/02/01 04:10:32;;;;;;;29.65;11.77;;;;;;;;;;10521663;28;20035;-71
2022/02/01 04:15:32;;;;;;;25.03;11.53;;;;;;;;;;10543468;28;20027;-71
2022/02/01 04:20:33;;;;;;;24.98;9.80;;;;;;;;;;10554970;28;20138;-71
2022/02/01 04:25:33;;;;;;;21.85;9.43;;;;;;;;;;10555108;28;20024;-71
2022/02/01 04:30:33;;;;;;;12.95;7.95;;;;;;;;;;10554320;28;20132;-73
2022/02/01 04:35:34;;;;;;;24.70;9.38;;;;;;;;;;10554377;28;20032;-72
2022/02/01 04:40:34;;;;;;;21.52;9.27;;;;;;;;;;10554141;28;20462;-72
2022/02/01 04:45:35;;;;;;;18.90;8.18;;;;;;;;;;10529317;28;20470;-70
2022/02/01 04:50:35;;;;;;;23.63;10.23;;;;;;;;;;10553818;28;20154;-70
2022/02/01 04:55:54;;;;;;;32.47;9.68;;;;;;;;;;10527884;28;20044;-71
2022/02/01 05:00:54;;;;;;;24.20;10.50;;;;;;;;;;10553415;28;20031;-72
2022/02/01 05:05:56;;;;;;;21.25;8.20;;;;;;;;;;10553901;28;20043;-70
2022/02/01 05:10:56;;;;;;;20.73;9.68;;;;;;;;;;10549529;28;20486;-72
2022/02/01 05:16:05;;;;;;;22.80;11.05;;;;;;;;;;10553372;28;20028;-71
2022/02/01 05:21:12;;;;;;;15.35;9.07;;;;;;;;;;10552859;28;20136;-75
2022/02/01 05:26:13;;;;;;;14.30;6.83;;;;;;;;;;10559693;28;20028;-71
2022/02/01 05:31:13;;;;;;;19.27;9.55;;;;;;;;;;10542676;28;20032;-71
2022/02/01 05:36:14;;;;;;;28.40;8.85;;;;;;;;;;10574715;28;20028;-72
2022/02/01 05:41:14;;;;;;;14.47;6.93;;;;;;;;;;10570179;28;20509;-71
2022/02/01 05:46:15;;;;;;;13.53;7.53;;;;;;;;;;10536910;28;20437;-71
2022/02/01 05:51:16;;;;;;;18.48;8.77;;;;;;;;;;10535088;28;20394;-71
2022/02/01 05:56:16;;;;;;;19.70;8.57;;;;;;;;;;10517990;28;20028;-76
2022/02/01 06:01:18;;;;;;;25.35;10.13;;;;;;;;;;10536464;28;20036;-74
2022/02/01 06:06:18;;;;;;;22.48;10.40;;;;;;;;;;10536218;28;20031;-73
2022/02/01 06:11:18;;;;;;;17.75;9.27;;;;;;;;;;10535933;28;20040;-72
2022/02/01 06:16:19;;;;;;;24.85;10.05;;;;;;;;;;10534599;28;20035;-72
2022/02/01 06:21:19;;;;;;;19.75;8.55;;;;;;;;;;10516836;28;20078;-72
2022/02/01 06:26:22;;;;;;;29.97;8.33;;;;;;;;;;10535952;28;20036;-73
2022/02/01 06:31:22;;;;;;;32.50;11.02;;;;;;;;;;10533604;28;20270;-72
2022/02/01 06:36:22;;;;;;;15.25;8.45;;;;;;;;;;10515920;28;20401;-74
2022/02/01 06:41:23;;;;;;;33.30;13.67;;;;;;;;;;10534521;28;20028;-73
2022/02/01 06:46:23;;;;;;;44.88;15.95;;;;;;;;;;10516657;28;20031;-76
2022/02/01 06:51:23;;;;;;;37.33;16.90;;;;;;;;;;10515370;28;20123;-72
2022/02/01 06:56:30;;;;;;;41.20;18.30;;;;;;;;;;10515047;28;20077;-77
2022/02/01 07:01:31;;;;;;;51.38;20.77;;;;;;;;;;10515935;28;20621;-73
2022/02/01 07:06:33;;;;;;;47.30;19.58;;;;;;;;;;10515563;28;20142;-73
2022/02/01 07:11:37;;;;;;;45.72;20.20;;;;;;;;;;10531533;28;20043;-72
2022/02/01 07:16:37;;;;;;;52.30;22.92;;;;;;;;;;10514944;28;20052;-72
2022/02/01 07:21:38;;;;;;;52.08;20.25;;;;;;;;;;10533660;28;20516;-72
2022/02/01 07:26:40;;;;;;;48.33;19.80;;;;;;;;;;10514716;28;20511;-73
2022/02/01 07:31:40;;;;;;;53.92;19.17;;;;;;;;;;10555753;28;20297;-72
2022/02/01 07:36:43;;;;;;;49.88;21.60;;;;;;;;;;10574815;28;20107;-72
2022/02/01 07:41:43;;;;;;;48.88;21.45;;;;;;;;;;10556315;28;20061;-72
2022/02/01 07:46:44;;;;;;;44.38;18.90;;;;;;;;;;10554687;28;20031;-72
2022/02/01 07:51:44;;;;;;;53.47;21.30;;;;;;;;;;10574366;28;20034;-79
2022/02/01 07:56:45;;;;;;;48.17;19.20;;;;;;;;;;10555534;28;20031;-73
2022/02/01 08:01:45;;;;;;;38.33;17.40;;;;;;;;;;10555136;28;20069;-72
2022/02/01 08:06:45;;;;;;;49.30;18.40;;;;;;;;;;10555028;28;20048;-73
2022/02/01 08:11:46;;;;;;;39.97;16.45;;;;;;;;;;10554758;28;20134;-72
2022/02/01 08:16:54;;;;;;;49.03;15.13;;;;;;;;;;10554857;28;20061;-73
2022/02/01 08:21:56;;;;;;;35.03;16.27;;;;;;;;;;10529583;28;20771;-70
2022/02/01 08:26:56;;;;;;;43.42;19.67;;;;;;;;;;10512828;28;20085;-72
2022/02/01 08:31:56;;;;;;;60.58;21.92;;;;;;;;;;10496293;28;20111;-72
2022/02/01 08:36:57;;;;;;;46.85;20.00;;;;;;;;;;10530138;28;20024;-73
2022/02/01 08:41:57;;;;;;;43.03;18.48;;;;;;;;;;10511939;28;20097;-71
2022/02/01 08:46:58;;;;;;;47.20;19.07;;;;;;;;;;10511954;28;20036;-73
2022/02/01 08:52:04;;;;;;;44.90;17.38;;;;;;;;;;10511776;28;20024;-77
2022/02/01 08:57:21;;;;;;;73.43;30.83;;;;;;;;;;10511221;28;20081;-73
2022/02/01 09:02:23;;;;;;;93.82;36.25;;;;;;;;;;10510732;28;20054;-75
2022/02/01 09:07:24;;;;;;;79.13;33.78;;;;;;;;;;10502740;28;20055;-72
2022/02/01 09:12:24;;;;;;;65.85;27.70;;;;;;;;;;10511337;28;20036;-73
2022/02/01 09:17:24;;;;;;;60.72;22.58;;;;;;;;;;10532771;28;20039;-72
2022/02/01 09:22:25;;;;;;;45.05;20.30;;;;;;;;;;10542643;28;20051;-72
2022/02/01 09:27:25;;;;;;;46.28;22.35;;;;;;;;;;10569879;28;20500;-72
2022/02/01 09:32:27;;;;;;;55.10;23.95;;;;;;;;;;10552782;28;20028;-72
2022/02/01 09:37:27;;;;;;;73.70;28.70;;;;;;;;;;10552828;28;20069;-72
2022/02/01 09:42:28;;;;;;;56.57;26.40;;;;;;;;;;10571310;28;20027;-72
2022/02/01 09:47:32;;;;;;;66.13;27.30;;;;;;;;;;10552605;28;20081;-71
2022/02/01 09:52:33;;;;;;;50.92;21.40;;;;;;;;;;10570362;28;20027;-75
2022/02/01 09:57:34;;;;;;;49.47;20.73;;;;;;;;;;10552443;28;20035;-78
2022/02/01 10:02:36;;;;;;;52.70;19.92;;;;;;;;;;10536509;28;20081;-78
2022/02/01 10:07:46;;;;;;;43.83;20.67;;;;;;;;;;10529104;28;20032;-72
2022/02/01 10:12:58;;;;;;;41.03;19.83;;;;;;;;;;10517080;28;20036;-73
2022/02/01 10:18:01;;;;;;;51.00;21.17;;;;;;;;;;10517575;28;20497;-73
2022/02/01 10:23:14;;;;;;;51.97;19.48;;;;;;;;;;10535517;28;20139;-73
2022/02/01 10:28:15;;;;;;;40.15;16.48;;;;;;;;;;10521233;28;20123;-74
2022/02/01 10:33:52;;;;;;;37.43;14.90;;;;;;;;;;10517328;28;20109;-72
2022/02/01 10:38:45;;;;;;;35.88;14.60;;;;;;;;;;10534606;28;20352;-73
2022/02/01 10:43:50;;;;;;;15.85;6.18;;;;;;;;;;10534270;28;20110;-72
2022/02/01 10:48:53;;;;;;;17.63;8.10;;;;;;;;;;10537456;28;20035;-72
2022/02/01 10:53:54;;;;;;;5.40;2.25;;;;;;;;;;10558511;28;20109;-72
2022/02/01 10:58:55;;;;;;;3.78;1.90;;;;;;;;;;10557893;28;20032;-71
2022/02/01 11:03:58;;;;;;;4.20;1.60;;;;;;;;;;10557870;28;20061;-73
2022/02/01 11:08:59;;;;;;;9.25;1.90;;;;;;;;;;10557176;28;20039;-73
2022/02/01 11:13:59;;;;;;;15.67;4.73;;;;;;;;;;10557497;28;20032;-77
2022/02/01 11:19:01;;;;;;;20.13;7.35;;;;;;;;;;10557185;28;20282;-73
2022/02/01 11:24:07;;;;;;;24.40;9.30;;;;;;;;;;10556994;28;20105;-72
2022/02/01 11:29:50;;;;;;;17.50;8.38;;;;;;;;;;10574601;28;20054;-73
2022/02/01 11:34:59;;;;;;;11.85;4.80;;;;;;;;;;10556500;28;20027;-72
2022/02/01 11:39:59;;;;;;;14.52;5.90;;;;;;;;;;10556068;28;20035;-72
2022/02/01 11:45:00;;;;;;;7.47;3.43;;;;;;;;;;10555975;28;20035;-73
2022/02/01 11:50:12;;;;;;;11.50;4.13;;;;;;;;;;10554847;28;20047;-78
2022/02/01 11:55:13;;;;;;;6.10;4.05;;;;;;;;;;10555822;28;20093;-73
2022/02/01 12:00:13;;;;;;;9.77;4.03;;;;;;;;;;10555560;28;20055;-77
2022/02/01 12:05:27;;;;;;;9.57;3.57;;;;;;;;;;10555327;28;20544;-72
2022/02/01 12:10:28;;;;;;;10.27;2.70;;;;;;;;;;10554675;28;20031;-77
2022/02/01 12:15:30;;;;;;;9.63;3.70;;;;;;;;;;10554723;28;20032;-74
2022/02/01 12:20:31;;;;;;;12.68;3.15;;;;;;;;;;10554675;28;20534;-77
2022/02/01 12:25:31;;;;;;;7.60;2.53;;;;;;;;;;10554604;28;20128;-77
2022/02/01 12:30:32;;;;;;;10.02;2.65;;;;;;;;;;10554618;28;20118;-72
2022/02/01 12:35:33;;;;;;;7.67;3.37;;;;;;;;;;10553662;28;20023;-73
2022/02/01 12:40:35;;;;;;;6.55;3.40;;;;;;;;;;10554020;28;20027;-79
2022/02/01 12:45:53;;;;;;;13.95;4.15;;;;;;;;;;10572173;28;20160;-72
2022/02/01 12:50:53;;;;;;;10.83;3.97;;;;;;;;;;10552508;28;20027;-72
2022/02/01 12:55:53;;;;;;;12.85;3.85;;;;;;;;;;10565268;28;20038;-74
2022/02/01 13:00:54;;;;;;;9.80;3.10;;;;;;;;;;10535583;28;20024;-71
2022/02/01 13:05:55;;;;;;;13.17;4.87;;;;;;;;;;10529379;28;20032;-73
2022/02/01 13:21:34;;;;;;;10.48;4.43;;;;;;;;;;10571530;28;20046;-73
2022/02/01 13:26:35;;;;;;;6.88;3.85;;;;;;;;;;10564032;28;20031;-72
2022/02/01 13:31:39;;;;;;;12.57;4.47;;;;;;;;;;10552763;28;20019;-72
2022/02/01 13:36:44;;;;;;;19.00;5.18;;;;;;;;;;10569634;28;20070;-72
2022/02/01 13:41:54;;;;;;;15.63;5.72;;;;;;;;;;10527608;28;20055;-72
2022/02/01 13:47:02;;;;;;;8.10;4.65;;;;;;;;;;10532582;28;20035;-72
2022/02/01 13:52:03;;;;;;;16.10;6.07;;;;;;;;;;10560770;28;20032;-73
2022/02/01 13:57:23;;;;;;;13.35;6.82;;;;;;;;;;10555296;28;20055;-72
2022/02/01 14:02:30;;;;;;;15.38;6.45;;;;;;;;;;10535730;28;20024;-72
2022/02/01 14:08:04;;;;;;;21.48;7.97;;;;;;;;;;10517679;28;20051;-71
2022/02/01 14:29:01;;;;;;;22.42;8.80;;;;;;;;;;10535697;28;20549;-72
2022/02/01 14:34:08;;;;;;;20.85;10.05;;;;;;;;;;10533961;28;20024;-73
2022/02/01 14:39:19;;;;;;;16.63;6.03;;;;;;;;;;10545547;28;20035;-71
2022/02/01 14:49:32;;;;;;;14.07;7.03;;;;;;;;;;10575972;28;20027;-75
2022/02/01 14:54:45;;;;;;;17.42;6.55;;;;;;;;;;10557610;28;20043;-71
2022/02/01 15:05:31;;;;;;;14.25;7.35;;;;;;;;;;10533485;28;20086;-72
2022/02/01 15:15:56;;;;;;;19.35;9.70;;;;;;;;;;10533385;28;20036;-72
2022/02/01 15:20:56;;;;;;;16.85;8.77;;;;;;;;;;10550190;28;20051;-74
2022/02/01 15:25:56;;;;;;;12.20;8.03;;;;;;;;;;10568646;28;20051;-70
2022/02/01 15:30:59;;;;;;;14.23;7.80;;;;;;;;;;10514081;28;20101;-70
2022/02/01 15:36:03;;;;;;;15.77;7.40;;;;;;;;;;10514751;28;20288;-70
2022/02/01 15:57:38;;;;;;;28.05;8.30;;;;;;;;;;10573555;28;20024;-75
2022/02/01 16:02:40;;;;;;;9.20;5.47;;;;;;;;;;10572611;28;20421;-75
2022/02/01 16:07:43;;;;;;;18.88;8.98;;;;;;;;;;10541701;28;20128;-72
2022/02/01 16:12:47;;;;;;;17.08;7.78;;;;;;;;;;10529732;28;20036;-72
2022/02/01 16:17:48;;;;;;;19.08;7.90;;;;;;;;;;10540667;28;20091;-72
2022/02/01 16:22:48;;;;;;;16.43;8.83;;;;;;;;;;10560667;27;20047;-71
2022/02/01 16:27:48;;;;;;;10.43;6.77;;;;;;;;;;10589428;27;20285;-76
2022/02/01 16:32:49;;;;;;;11.35;6.75;;;;;;;;;;10554518;27;20753;-72
2022/02/01 16:37:49;;;;;;;13.20;7.97;;;;;;;;;;10553028;28;20417;-72
2022/02/01 16:42:49;;;;;;;10.65;6.75;;;;;;;;;;10553829;28;20378;-71
2022/02/01 16:47:50;;;;;;;13.43;7.35;;;;;;;;;;10553509;28;20032;-70
2022/02/01 16:52:55;;;;;;;18.27;9.23;;;;;;;;;;10553715;28;20031;-73
2022/02/01 16:57:58;;;;;;;12.45;8.40;;;;;;;;;;10552365;28;20522;-70
2022/02/01 17:02:59;;;;;;;18.30;7.60;;;;;;;;;;10568976;28;20036;-72
2022/02/01 17:08:00;;;;;;;17.42;6.30;;;;;;;;;;10536633;28;20048;-71
2022/02/01 17:13:11;;;;;;;18.43;6.33;;;;;;;;;;10559178;28;20035;-70
2022/02/01 17:23:29;;;;;;;;;;;;;;;;;;10587037;27;20068;-70
2022/02/01 17:28:30;;;;;;;11.43;6.53;;;;;;;;;;10560014;28;20412;-70
2022/02/01 17:33:30;;;;;;;15.60;8.70;;;;;;;;;;10579930;28;20036;-73
2022/02/01 17:38:31;;;;;;;16.87;9.03;;;;;;;;;;10560529;28;20155;-73
2022/02/01 17:43:31;;;;;;;17.98;9.60;;;;;;;;;;10543529;28;20088;-71
2022/02/01 17:48:33;;;;;;;16.20;7.13;;;;;;;;;;10563672;27;20465;-70
2022/02/01 17:58:52;;;;;;;;;;;;;;;;;;10578142;28;20074;-75
2022/02/01 18:03:52;;;;;;;14.98;9.15;;;;;;;;;;10545000;28;19998;-71
2022/02/01 18:08:54;;;;;;;18.97;10.17;;;;;;;;;;10563164;28;20070;-70
2022/02/01 18:14:20;;;;;;;16.27;8.90;;;;;;;;;;10545309;28;20282;-70
2022/02/01 18:19:20;;;;;;;24.95;11.55;;;;;;;;;;10518202;28;20066;-70
2022/02/01 18:24:20;;;;;;;23.40;12.73;;;;;;;;;;10558470;28;20048;-72
2022/02/01 18:29:22;;;;;;;31.95;11.25;;;;;;;;;;10577156;28;20034;-70
2022/02/01 18:34:23;;;;;;;21.05;10.02;;;;;;;;;;10551217;28;20451;-71
2022/02/01 18:39:29;;;;;;;24.60;8.68;;;;;;;;;;10551740;28;20132;-73
2022/02/01 18:44:29;;;;;;;25.67;9.65;;;;;;;;;;10551357;28;20031;-73
2022/02/01 18:54:38;;;;;;;18.02;8.75;;;;;;;;;;10574343;28;20261;-71
2022/02/01 19:15:17;;;;;;;25.45;9.38;;;;;;;;;;10554701;28;20021;-71
2022/02/01 19:20:18;;;;;;;23.38;11.43;;;;;;;;;;10543071;28;20142;-69
2022/02/01 19:25:26;;;;;;;27.85;11.00;;;;;;;;;;10553545;28;20046;-71
2022/02/01 19:30:26;;;;;;;21.27;10.75;;;;;;;;;;10572091;28;20139;-71
2022/02/01 19:35:27;;;;;;;24.33;10.25;;;;;;;;;;10573264;28;20187;-71
2022/02/01 19:40:27;;;;;;;21.38;8.70;;;;;;;;;;10620226;22;20048;-76
2022/02/01 19:45:28;;;;;;;21.67;10.88;;;;;;;;;;10513634;28;20024;-75
2022/02/01 19:50:28;;;;;;;29.30;11.53;;;;;;;;;;10530497;28;20032;-74
2022/02/01 19:55:28;;;;;;;26.90;11.45;;;;;;;;;;10530333;28;20269;-74
2022/02/01 20:00:29;;;;;;;23.42;11.32;;;;;;;;;;10509207;28;20036;-71
2022/02/01 20:05:33;;;;;;;23.80;10.40;;;;;;;;;;10470717;28;20538;-71
2022/02/01 20:10:35;;;;;;;21.67;10.38;;;;;;;;;;10471092;28;20040;-71
2022/02/01 20:15:36;;;;;;;16.85;9.10;;;;;;;;;;10486450;28;20033;-71
2022/02/01 20:20:36;;;;;;;29.67;10.07;;;;;;;;;;10469846;28;20039;-71
2022/02/01 20:25:37;;;;;;;30.15;10.43;;;;;;;;;;10487995;28;20111;-74
2022/02/01 20:30:37;;;;;;;23.02;11.05;;;;;;;;;;10486349;28;20062;-70
2022/02/01 20:35:38;;;;;;;16.63;10.07;;;;;;;;;;10485444;28;20035;-71
2022/02/01 20:40:43;;;;;;;25.60;9.85;;;;;;;;;;10461823;28;20303;-72
2022/02/01 20:45:44;;;;;;;29.33;11.43;;;;;;;;;;10496262;28;20127;-71
2022/02/01 20:50:53;;;;;;;18.52;10.35;;;;;;;;;;10486091;28;20416;-71
2022/02/01 20:55:53;;;;;;;23.10;10.48;;;;;;;;;;10471257;28;20116;-71
2022/02/01 21:00:56;;;;;;;15.15;8.43;;;;;;;;;;10485775;28;20047;-71
2022/02/01 21:05:57;;;;;;;21.35;10.60;;;;;;;;;;10489573;28;20067;-76
2022/02/01 21:10:57;;;;;;;16.98;9.98;;;;;;;;;;10471056;28;20140;-70
2022/02/01 21:15:57;;;;;;;30.98;11.18;;;;;;;;;;10509419;28;20036;-72
2022/02/01 21:20:58;;;;;;;19.27;8.67;;;;;;;;;;10511151;28;20039;-73
2022/02/01 21:25:58;;;;;;;28.67;9.48;;;;;;;;;;10501842;28;21003;-72
2022/02/01 21:31:00;;;;;;;21.98;10.45;;;;;;;;;;10469217;28;20494;-76
2022/02/01 21:36:00;;;;;;;34.55;10.52;;;;;;;;;;10487814;28;20067;-71
2022/02/01 21:41:01;;;;;;;32.42;11.43;;;;;;;;;;10486171;28;20148;-72
2022/02/01 21:46:01;;;;;;;20.27;10.00;;;;;;;;;;10487339;28;20043;-72
2022/02/01 21:51:01;;;;;;;24.77;9.32;;;;;;;;;;10469115;28;20419;-71
2022/02/01 21:56:02;;;;;;;12.73;8.43;;;;;;;;;;10476921;28;20071;-75
2022/02/01 22:01:02;;;;;;;17.07;9.13;;;;;;;;;;10510722;28;20038;-72
2022/02/01 22:06:05;;;;;;;17.42;8.77;;;;;;;;;;10513973;28;20065;-73
2022/02/01 22:11:05;;;;;;;17.05;9.55;;;;;;;;;;10518208;28;20123;-72
2022/02/01 22:16:05;;;;;;;14.80;8.17;;;;;;;;;;10517883;28;20213;-72
2022/02/01 22:21:07;;;;;;;19.90;8.83;;;;;;;;;;10536507;28;20541;-72
2022/02/01 22:26:07;;;;;;;23.05;8.10;;;;;;;;;;10517878;28;20036;-72
2022/02/01 22:31:07;;;;;;;18.07;9.90;;;;;;;;;;10517240;28;20524;-72
2022/02/01 22:36:09;;;;;;;19.80;8.13;;;;;;;;;;10535578;28;20088;-71
2022/02/01 22:41:09;;;;;;;23.90;8.02;;;;;;;;;;10517111;28;20082;-71
2022/02/01 22:46:12;;;;;;;12.40;8.10;;;;;;;;;;10534639;28;20561;-75
2022/02/01 22:51:13;;;;;;;21.08;8.45;;;;;;;;;;10516876;28;20043;-71
2022/02/01 22:56:13;;;;;;;16.38;7.55;;;;;;;;;;10516110;28;20077;-72
2022/02/01 23:01:14;;;;;;;15.30;8.77;;;;;;;;;;10516284;28;20058;-74
2022/02/01 23:06:14;;;;;;;17.42;8.70;;;;;;;;;;10517173;28;20092;-72
2022/02/01 23:21:17;;;;;;;17.08;8.98;;;;;;;;;;10534184;28;20020;-71
2022/02/01 23:26:18;;;;;;;29.70;10.88;;;;;;;;;;10514867;28;20040;-73
2022/02/01 23:31:19;;;;;;;19.02;9.90;;;;;;;;;;10497814;28;20044;-72
2022/02/01 23:52:18;;;;;;;16.67;10.77;;;;;;;;;;10533070;28;20480;-75
2022/02/01 23:57:20;;;;;;;15.05;8.75;;;;;;;;;;10531994;28;20475;-72
